Time;durP1;ratioP1;P1;durP2;ratioP2;P2;SDS_P1;SDS_P2;PMS_P1;PMS_P2;Temp;Humidity;BMP_temperature;BMP_pressure;BME280_temperature;BME280_humidity;BME280_pressure;Samples;Min_cycle;Max_cycle;Signal;HPM_P1;HPM_P2
2022/12/09 00:01:47;;;;;;;80.32;24.10;;;;;;;-0.03;100.00;100664.06;5058829;28;20070;-39
2022/12/09 00:04:12;;;;;;;220.63;27.15;;;;;;;-0.10;100.00;100658.44;5062368;28;20395;-40
2022/12/09 00:06:37;;;;;;;113.50;24.70;;;;;;;-0.06;100.00;100665.16;5070837;28;20244;-37
2022/12/09 00:09:03;;;;;;;122.30;24.65;;;;;;;0.05;100.00;100650.25;5054913;28;20037;-37
2022/12/09 00:11:28;;;;;;;200.68;28.83;;;;;;;0.04;100.00;100660.00;5051962;28;20025;-38
2022/12/09 00:13:56;;;;;;;143.27;24.02;;;;;;;0.02;100.00;100656.63;5052174;28;20029;-38
2022/12/09 00:16:22;;;;;;;169.63;27.92;;;;;;;-0.03;100.00;100656.13;5051362;28;20060;-38
2022/12/09 00:18:48;;;;;;;162.77;28.90;;;;;;;0.01;100.00;100654.97;5055974;28;20525;-36
2022/12/09 00:21:19;;;;;;;151.98;25.40;;;;;;;0.02;100.00;100658.44;5052100;28;20033;-39
2022/12/09 00:23:44;;;;;;;143.90;28.45;;;;;;;-0.02;100.00;100663.97;5050324;28;20032;-36
2022/12/09 00:26:10;;;;;;;179.98;27.70;;;;;;;-0.01;100.00;100662.16;5050851;28;20064;-38
2022/12/09 00:28:36;;;;;;;93.13;26.77;;;;;;;-0.01;100.00;100662.16;5052457;28;20040;-37
2022/12/09 00:31:02;;;;;;;156.52;28.05;;;;;;;0.05;100.00;100659.03;5056890;28;20051;-36
2022/12/09 00:33:31;;;;;;;116.25;27.95;;;;;;;0.01;100.00;100662.06;5068756;28;21010;-38
2022/12/09 00:36:29;;;;;;;84.35;28.58;;;;;;;0.04;100.00;100667.09;5068700;28;20037;-39
2022/12/09 00:38:56;;;;;;;83.38;25.63;;;;;;;0.12;100.00;100662.91;5057200;28;20056;-36
2022/12/09 00:41:21;;;;;;;241.57;30.67;;;;;;;0.08;100.00;100665.91;5067662;28;20033;-39
2022/12/09 00:43:46;;;;;;;184.35;28.67;;;;;;;0.05;100.00;100672.25;5060005;28;20081;-36
2022/12/09 00:46:12;;;;;;;93.95;29.15;;;;;;;0.03;100.00;100668.91;5067204;28;20517;-38
2022/12/09 00:48:38;;;;;;;92.18;27.10;;;;;;;0.07;100.00;100666.88;5067641;28;20092;-38
2022/12/09 00:51:05;;;;;;;149.93;30.45;;;;;;;0.05;100.00;100666.13;5059687;28;20020;-39
2022/12/09 00:53:31;;;;;;;105.15;26.90;;;;;;;0.12;100.00;100670.84;5063225;28;20036;-37
2022/12/09 00:55:56;;;;;;;127.45;30.80;;;;;;;0.16;100.00;100669.66;5055343;28;20021;-36
2022/12/09 00:58:22;;;;;;;90.35;28.00;;;;;;;0.16;100.00;100674.09;5065181;28;20067;-37
2022/12/09 01:00:47;;;;;;;236.60;29.13;;;;;;;0.14;100.00;100679.50;5051654;28;20033;-37
2022/12/09 01:03:14;;;;;;;278.70;33.72;;;;;;;0.19;100.00;100673.88;5051152;28;20033;-38
2022/12/09 01:05:40;;;;;;;174.02;30.13;;;;;;;0.24;100.00;100682.28;5058116;28;20044;-37
2022/12/09 01:08:05;;;;;;;101.45;26.98;;;;;;;0.29;100.00;100676.63;5049418;28;20025;-38
2022/12/09 01:10:32;;;;;;;153.00;29.48;;;;;;;0.27;100.00;100678.56;5058634;28;20029;-38
2022/12/09 01:12:58;;;;;;;169.50;31.25;;;;;;;0.20;100.00;100686.13;5050582;28;20037;-36
2022/12/09 01:15:23;;;;;;;185.30;26.42;;;;;;;0.20;100.00;100680.84;5069033;28;20036;-38
2022/12/09 01:17:49;;;;;;;107.72;26.95;;;;;;;0.15;100.00;100670.59;5067836;28;20033;-39
2022/12/09 01:20:14;;;;;;;153.07;28.70;;;;;;;0.06;100.00;100673.97;5057048;28;20029;-36
2022/12/09 01:22:39;;;;;;;120.88;31.50;;;;;;;0.06;100.00;100670.47;5051896;28;20069;-39
2022/12/09 01:25:05;;;;;;;102.80;30.38;;;;;;;0.09;100.00;100665.78;5049236;28;20036;-36
2022/12/09 01:27:30;;;;;;;88.28;29.38;;;;;;;0.21;100.00;100670.13;5065054;28;20245;-38
2022/12/09 01:29:56;;;;;;;151.90;29.38;;;;;;;0.26;100.00;100676.88;5052515;28;20029;-39
2022/12/09 01:32:21;;;;;;;186.00;29.48;;;;;;;0.32;100.00;100674.59;5058326;28;20032;-39
2022/12/09 01:34:47;;;;;;;138.38;30.05;;;;;;;0.30;100.00;100675.69;5064544;28;20025;-37
2022/12/09 01:37:12;;;;;;;143.45;28.80;;;;;;;0.32;100.00;100679.06;5062734;28;20585;-36
2022/12/09 01:39:37;;;;;;;101.00;28.70;;;;;;;0.30;100.00;100671.22;5063745;28;20060;-36
2022/12/09 01:42:03;;;;;;;245.50;29.17;;;;;;;0.24;100.00;100681.41;5057350;28;20040;-37
2022/12/09 01:44:31;;;;;;;86.55;27.83;;;;;;;0.24;100.00;100681.41;5052758;28;20040;-36
2022/12/09 01:46:58;;;;;;;285.85;29.27;;;;;;;0.19;100.00;100689.75;5065789;28;20027;-36
2022/12/09 01:49:27;;;;;;;339.90;28.98;;;;;;;0.01;100.00;100686.72;5057396;28;20511;-38
2022/12/09 01:52:13;;;;;;;317.00;27.83;;;;;;;-0.07;100.00;100683.81;5055845;28;20021;-39
2022/12/09 01:54:40;;;;;;;554.42;42.58;;;;;;;-0.08;100.00;100676.81;5059585;28;20479;-36
2022/12/09 01:57:06;;;;;;;306.65;30.08;;;;;;;-0.13;100.00;100673.69;5073268;28;20035;-38
2022/12/09 01:59:32;;;;;;;297.42;27.05;;;;;;;-0.30;100.00;100678.44;5064597;28;20040;-37
2022/12/09 02:01:59;;;;;;;127.95;23.02;;;;;;;-0.34;100.00;100678.78;5057366;28;20444;-36
2022/12/09 02:04:26;;;;;;;278.48;25.27;;;;;;;-0.44;100.00;100676.03;5053159;28;20067;-37
2022/12/09 02:06:51;;;;;;;184.95;22.45;;;;;;;-0.42;100.00;100674.09;5051779;28;20056;-36
2022/12/09 02:09:17;;;;;;;321.52;22.60;;;;;;;-0.40;100.00;100674.81;5060460;28;20388;-39
2022/12/09 02:11:55;;;;;;;221.65;19.80;;;;;;;-0.51;100.00;100672.13;5070964;28;20057;-38
2022/12/09 02:14:40;;;;;;;110.97;17.63;;;;;;;-0.42;100.00;100674.09;5065173;28;20033;-36
2022/12/09 02:17:16;;;;;;;174.45;16.90;;;;;;;-0.56;100.00;100677.75;5049909;28;20027;-39
2022/12/09 02:19:48;;;;;;;305.63;20.45;;;;;;;-0.61;100.00;100669.31;5049640;28;20444;-38
2022/12/09 02:22:16;;;;;;;173.43;22.08;;;;;;;-0.54;100.00;100669.72;5056835;28;20032;-39
2022/12/09 02:25:09;;;;;;;201.35;20.45;;;;;;;-0.49;100.00;100657.84;5052604;28;20103;-39
2022/12/09 02:28:09;;;;;;;160.32;17.63;;;;;;;-0.41;100.00;100654.63;5088717;28;20446;-38
2022/12/09 02:31:13;;;;;;;78.45;17.80;;;;;;;-0.35;100.00;100653.31;5083933;28;20072;-37
2022/12/09 02:34:16;;;;;;;95.55;20.17;;;;;;;-0.27;100.00;100662.34;5051716;28;20033;-37
2022/12/09 02:36:55;;;;;;;70.68;19.15;;;;;;;-0.25;100.00;100654.31;5051342;28;20025;-37
2022/12/09 02:39:37;;;;;;;109.50;19.88;;;;;;;-0.23;100.00;100653.22;5051482;28;20033;-39
2022/12/09 02:42:03;;;;;;;84.70;20.67;;;;;;;-0.19;100.00;100653.00;5051157;28;20060;-38
2022/12/09 02:44:29;;;;;;;69.80;19.25;;;;;;;-0.20;100.00;100651.31;5049369;28;20423;-37
2022/12/09 02:46:55;;;;;;;79.38;20.40;;;;;;;-0.15;100.00;100657.94;5049951;28;20029;-37
2022/12/09 02:49:21;;;;;;;77.75;19.45;;;;;;;-0.19;100.00;100663.56;5051352;28;20056;-37
2022/12/09 02:51:48;;;;;;;76.80;20.67;;;;;;;-0.25;100.00;100660.44;5051397;28;20060;-37
2022/12/09 02:54:15;;;;;;;77.90;21.73;;;;;;;-0.15;100.00;100662.41;5049758;28;20033;-37
2022/12/09 02:56:49;;;;;;;80.68;19.90;;;;;;;-0.14;100.00;100656.13;5049738;28;20116;-38
2022/12/09 02:59:14;;;;;;;79.90;19.25;;;;;;;-0.14;100.00;100653.50;5062682;28;20029;-39
2022/12/09 03:01:54;;;;;;;76.53;20.80;;;;;;;-0.18;100.00;100658.19;5054721;28;20101;-37
2022/12/09 03:04:22;;;;;;;87.18;23.15;;;;;;;-0.29;100.00;100650.19;5060416;28;20033;-39
2022/12/09 03:06:50;;;;;;;70.93;21.27;;;;;;;-0.28;100.00;100650.09;5064935;28;20036;-39
2022/12/09 03:09:20;;;;;;;77.05;22.90;;;;;;;-0.13;100.00;100657.81;5052866;28;20029;-39
2022/12/09 03:11:46;;;;;;;74.80;22.08;;;;;;;-0.17;100.00;100649.28;5049379;28;20436;-39
2022/12/09 03:14:16;;;;;;;87.88;22.63;;;;;;;-0.31;100.00;100642.41;5049396;28;20021;-39
2022/12/09 03:17:01;;;;;;;81.47;23.05;;;;;;;-0.34;100.00;100647.94;5069229;28;20028;-37
2022/12/09 03:19:50;;;;;;;84.18;22.60;;;;;;;-0.39;100.00;100647.44;5070012;28;20473;-36
2022/12/09 03:22:18;;;;;;;79.53;20.67;;;;;;;-0.33;100.00;100654.88;5069162;28;20082;-38
2022/12/09 03:24:54;;;;;;;84.30;22.45;;;;;;;-0.33;100.00;100646.97;5061039;28;20059;-37
2022/12/09 03:27:24;;;;;;;77.20;22.55;;;;;;;-0.31;100.00;100650.34;5014652;28;1082756;-37
2022/12/09 03:29:51;;;;;;;76.18;22.27;;;;;;;-0.36;100.00;100641.06;5053307;28;20392;-37
2022/12/09 03:32:18;;;;;;;104.15;21.92;;;;;;;-0.44;100.00;100644.28;5059431;28;20036;-36
2022/12/09 03:34:45;;;;;;;74.35;22.83;;;;;;;-0.46;100.00;100640.91;5061720;28;20032;-37
2022/12/09 03:37:14;;;;;;;74.55;22.80;;;;;;;-0.44;100.00;100633.72;5070171;28;20027;-37
2022/12/09 03:39:41;;;;;;;88.10;22.95;;;;;;;-0.51;100.00;100632.50;5067831;28;20468;-36
2022/12/09 03:42:15;;;;;;;92.05;22.40;;;;;;;-0.52;100.00;100636.94;5061934;28;20020;-38
2022/12/09 03:44:51;;;;;;;101.70;24.27;;;;;;;-0.42;100.00;100631.81;5069515;28;20040;-37
2022/12/09 03:47:16;;;;;;;81.22;23.25;;;;;;;-0.36;100.00;100631.34;5070687;28;20035;-38
2022/12/09 03:49:41;;;;;;;77.05;23.73;;;;;;;-0.45;100.00;100626.72;5054236;28;20033;-38
2022/12/09 03:52:30;;;;;;;89.28;22.63;;;;;;;-0.37;100.00;100626.16;5070907;28;20073;-37
2022/12/09 03:55:02;;;;;;;135.02;24.15;;;;;;;-0.41;100.00;100628.19;5055104;28;20040;-38
2022/12/09 03:57:28;;;;;;;93.40;24.92;;;;;;;-0.41;100.00;100616.78;5059010;28;20395;-35
2022/12/09 03:59:58;;;;;;;101.45;24.35;;;;;;;-0.52;100.00;100612.31;5070881;28;20060;-38
2022/12/09 04:02:24;;;;;;;96.95;23.38;;;;;;;-0.48;100.00;100611.94;5058448;28;20033;-36
2022/12/09 04:04:49;;;;;;;193.85;23.45;;;;;;;-0.51;100.00;100621.91;5061647;28;20036;-38
2022/12/09 04:07:16;;;;;;;101.75;20.67;;;;;;;-0.65;100.00;100614.19;5069617;28;20071;-36
2022/12/09 04:09:41;;;;;;;76.32;22.23;;;;;;;-0.68;100.00;100626.69;5064242;28;20036;-35
2022/12/09 04:12:06;;;;;;;78.60;21.58;;;;;;;-0.75;100.00;100622.78;5050954;28;20036;-37
2022/12/09 04:14:32;;;;;;;70.45;20.27;;;;;;;-0.72;100.00;100627.84;5051298;28;20030;-36
2022/12/09 04:16:57;;;;;;;75.28;21.02;;;;;;;-0.67;100.00;100638.09;5050613;28;20487;-38
2022/12/09 04:19:22;;;;;;;160.25;21.95;;;;;;;-0.59;100.00;100630.41;5050980;28;20082;-36
2022/12/09 04:21:48;;;;;;;78.38;21.73;;;;;;;-0.66;100.00;100629.19;5062590;28;20024;-35
2022/12/09 04:24:13;;;;;;;87.40;22.30;;;;;;;-0.73;100.00;100628.81;5069000;28;20040;-36
2022/12/09 04:26:39;;;;;;;78.13;20.92;;;;;;;-0.72;100.00;100630.50;5069313;28;20047;-36
2022/12/09 04:29:04;;;;;;;91.15;22.65;;;;;;;-0.80;100.00;100640.78;5070492;28;20033;-37
2022/12/09 04:31:29;;;;;;;83.55;22.38;;;;;;;-0.79;100.00;100634.56;5059775;28;20033;-39
2022/12/09 04:33:55;;;;;;;93.25;21.88;;;;;;;-0.75;100.00;100628.09;5064686;28;20035;-38
2022/12/09 04:36:21;;;;;;;81.68;21.33;;;;;;;-0.75;100.00;100624.59;5058387;28;20064;-38
2022/12/09 04:38:47;;;;;;;90.18;22.42;;;;;;;-0.76;100.00;100625.56;5053515;28;20097;-37
2022/12/09 04:41:13;;;;;;;81.57;20.38;;;;;;;-0.74;100.00;100618.34;5050440;28;20094;-38
2022/12/09 04:43:38;;;;;;;77.68;20.55;;;;;;;-0.57;100.00;100611.81;5051135;28;20021;-37
2022/12/09 04:46:06;;;;;;;81.72;20.92;;;;;;;-0.57;100.00;100617.09;5063004;28;20061;-37
2022/12/09 04:48:31;;;;;;;89.70;23.20;;;;;;;-0.56;100.00;100611.69;5051226;28;20044;-38
2022/12/09 04:50:58;;;;;;;92.03;20.70;;;;;;;-0.62;100.00;100614.78;5050273;28;20384;-39
2022/12/09 04:53:24;;;;;;;76.82;20.25;;;;;;;-0.72;100.00;100614.63;5051101;28;20025;-39
2022/12/09 04:55:49;;;;;;;82.90;22.08;;;;;;;-0.70;100.00;100620.66;5051099;28;20036;-37
2022/12/09 04:58:14;;;;;;;79.90;21.15;;;;;;;-0.66;100.00;100626.53;5069705;28;20510;-36
2022/12/09 05:00:39;;;;;;;79.80;21.23;;;;;;;-0.70;100.00;100623.28;5065997;28;20457;-37
2022/12/09 05:03:05;;;;;;;89.18;22.13;;;;;;;-0.64;100.00;100623.78;5050432;28;20044;-37
2022/12/09 05:05:30;;;;;;;84.43;21.10;;;;;;;-0.65;100.00;100622.97;5050463;28;20406;-37
2022/12/09 05:07:56;;;;;;;87.43;20.40;;;;;;;-0.68;100.00;100610.81;5056590;28;20124;-37
2022/12/09 05:10:21;;;;;;;88.53;20.98;;;;;;;-0.62;100.00;100619.25;5067033;28;20056;-38
2022/12/09 05:12:47;;;;;;;89.18;21.67;;;;;;;-0.53;100.00;100619.38;5062265;28;20017;-39
2022/12/09 05:15:12;;;;;;;131.75;22.25;;;;;;;-0.58;100.00;100615.41;5050918;28;20472;-37
2022/12/09 05:17:37;;;;;;;85.22;21.10;;;;;;;-0.58;100.00;100605.69;5049596;28;20083;-39
2022/12/09 05:20:03;;;;;;;150.95;23.42;;;;;;;-0.55;100.00;100607.25;5051004;28;20029;-37
2022/12/09 05:22:29;;;;;;;91.13;20.60;;;;;;;-0.50;100.00;100608.59;5056723;28;20041;-38
2022/12/09 05:24:54;;;;;;;82.63;20.27;;;;;;;-0.55;100.00;100609.91;5071699;28;20082;-37
2022/12/09 05:27:21;;;;;;;92.78;20.67;;;;;;;-0.68;100.00;100605.53;5071280;28;20047;-39
2022/12/09 05:29:47;;;;;;;95.45;19.50;;;;;;;-0.65;100.00;100599.16;5070235;28;20036;-37
2022/12/09 05:32:12;;;;;;;283.35;23.30;;;;;;;-0.81;100.00;100599.47;5058981;28;20044;-38
2022/12/09 05:34:38;;;;;;;147.10;22.30;;;;;;;-0.82;100.00;100603.06;5061579;28;20032;-37
2022/12/09 05:37:03;;;;;;;242.85;24.48;;;;;;;-0.78;100.00;100599.25;5055773;28;20506;-37
2022/12/09 05:39:29;;;;;;;147.45;19.10;;;;;;;-0.76;100.00;100607.06;5057505;28;20029;-37
2022/12/09 05:41:54;;;;;;;162.35;21.70;;;;;;;-0.75;100.00;100598.19;5054751;28;20375;-39
2022/12/09 05:44:20;;;;;;;82.30;19.27;;;;;;;-0.67;100.00;100599.28;5070638;28;20352;-37
2022/12/09 05:46:45;;;;;;;123.97;21.25;;;;;;;-0.70;100.00;100607.44;5071903;28;20058;-38
2022/12/09 05:49:10;;;;;;;319.50;23.73;;;;;;;-0.79;100.00;100605.50;5065957;28;20147;-39
2022/12/09 05:51:36;;;;;;;286.48;23.50;;;;;;;-0.91;100.00;100606.41;5059920;28;20399;-38
2022/12/09 05:54:03;;;;;;;136.38;21.15;;;;;;;-0.84;100.00;100610.28;5062260;28;20073;-36
2022/12/09 05:56:29;;;;;;;223.90;20.63;;;;;;;-0.88;100.00;100620.22;5061425;28;20440;-38
2022/12/09 05:58:54;;;;;;;143.43;19.05;;;;;;;-1.01;100.00;100615.97;5065404;28;20329;-39
2022/12/09 06:01:20;;;;;;;75.43;17.85;;;;;;;-0.84;100.00;100620.84;5066346;28;20040;-37
2022/12/09 06:03:47;;;;;;;91.35;19.00;;;;;;;-0.80;100.00;100617.00;5067604;28;20067;-39
2022/12/09 06:06:14;;;;;;;89.68;19.20;;;;;;;-0.71;100.00;100621.63;5062937;28;20044;-39
2022/12/09 06:08:40;;;;;;;86.18;18.13;;;;;;;-0.80;100.00;100611.72;5052276;28;20399;-36
2022/12/09 06:11:19;;;;;;;85.22;19.17;;;;;;;-0.86;100.00;100617.47;5051662;28;20387;-36
2022/12/09 06:13:45;;;;;;;88.85;19.95;;;;;;;-0.85;100.00;100613.88;5064619;28;20021;-39
2022/12/09 06:16:12;;;;;;;79.18;18.08;;;;;;;-0.87;100.00;100613.13;5066695;28;20025;-39
2022/12/09 06:18:38;;;;;;;94.45;21.00;;;;;;;-0.85;100.00;100613.03;5061890;28;20498;-37
2022/12/09 06:21:05;;;;;;;83.22;19.88;;;;;;;-0.84;100.00;100614.69;5072666;28;20104;-39
2022/12/09 06:23:30;;;;;;;94.28;21.67;;;;;;;-0.78;100.00;100615.09;5073017;28;20165;-37
2022/12/09 06:25:55;;;;;;;86.25;20.58;;;;;;;-0.78;100.00;100614.25;5073295;28;20107;-38
2022/12/09 06:28:21;;;;;;;78.03;18.75;;;;;;;-0.75;100.00;100614.03;5075027;28;20144;-37
2022/12/09 06:30:46;;;;;;;103.88;21.42;;;;;;;-0.92;100.00;100615.31;5063369;28;20017;-39
2022/12/09 06:33:11;;;;;;;90.25;21.40;;;;;;;-0.96;100.00;100616.47;5055744;28;20432;-40
2022/12/09 06:35:37;;;;;;;83.78;18.95;;;;;;;-1.01;100.00;100614.16;5053540;28;20052;-38
2022/12/09 06:38:02;;;;;;;91.63;20.60;;;;;;;-1.05;100.00;100602.16;5070421;28;20021;-40
2022/12/09 06:40:27;;;;;;;78.97;19.05;;;;;;;-0.98;100.00;100602.53;5073462;28;20033;-38
2022/12/09 06:42:53;;;;;;;87.78;20.33;;;;;;;-0.88;100.00;100614.09;5073902;28;20028;-39
2022/12/09 06:45:19;;;;;;;93.05;21.23;;;;;;;-0.86;100.00;100601.63;5060972;28;20166;-39
2022/12/09 06:47:44;;;;;;;85.22;19.65;;;;;;;-0.86;100.00;100606.91;5052788;28;20112;-38
2022/12/09 06:50:10;;;;;;;87.78;20.45;;;;;;;-0.92;100.00;100600.28;5052641;28;20108;-39
2022/12/09 06:52:36;;;;;;;90.93;22.02;;;;;;;-0.99;100.00;100609.63;5054102;28;20052;-39
2022/12/09 06:55:03;;;;;;;95.30;20.95;;;;;;;-0.94;100.00;100598.72;5071375;28;20490;-38
2022/12/09 06:57:28;;;;;;;90.13;20.52;;;;;;;-0.95;100.00;100608.44;5072897;28;20031;-39
2022/12/09 06:59:54;;;;;;;98.78;22.60;;;;;;;-0.94;100.00;100599.56;5072612;28;20025;-39
2022/12/09 07:02:19;;;;;;;106.95;23.42;;;;;;;-0.89;100.00;100596.56;5067335;28;20032;-38
2022/12/09 07:04:45;;;;;;;103.22;22.13;;;;;;;-0.90;100.00;100592.22;5065934;28;20029;-38
2022/12/09 07:07:10;;;;;;;98.28;21.50;;;;;;;-0.93;100.00;100595.94;5072607;28;20028;-38
2022/12/09 07:09:36;;;;;;;105.13;22.17;;;;;;;-0.94;100.00;100594.25;5072716;28;20036;-40
2022/12/09 07:12:01;;;;;;;140.90;24.50;;;;;;;-0.97;100.00;100604.22;5070855;28;20030;-38
2022/12/09 07:14:26;;;;;;;156.05;23.05;;;;;;;-0.91;100.00;100599.31;5054091;28;20053;-39
2022/12/09 07:16:52;;;;;;;167.63;25.63;;;;;;;-0.89;100.00;100605.34;5056192;28;20542;-40
2022/12/09 07:19:19;;;;;;;111.65;23.52;;;;;;;-0.89;100.00;100596.56;5052609;28;20639;-39
2022/12/09 07:21:45;;;;;;;101.85;22.08;;;;;;;-0.95;100.00;100608.44;5052186;28;20422;-39
2022/12/09 07:24:13;;;;;;;128.88;23.00;;;;;;;-0.97;100.00;100601.59;5052746;28;20117;-37
2022/12/09 07:26:38;;;;;;;;;;;;;;;-0.89;100.00;100605.34;5053983;28;20480;-38
2022/12/09 07:29:04;;;;;;;144.43;23.58;;;;;;;-0.94;100.00;100604.84;5053875;28;19912;-37
2022/12/09 07:31:30;;;;;;;118.30;21.95;;;;;;;-0.94;100.00;100598.72;5057251;28;20491;-37
2022/12/09 07:33:56;;;;;;;102.72;22.38;;;;;;;-0.91;100.00;100599.31;5061433;28;20029;-39
2022/12/09 07:36:23;;;;;;;107.80;25.52;;;;;;;-0.86;100.00;100608.72;5059762;28;20021;-39
2022/12/09 07:38:56;;;;;;;103.10;24.65;;;;;;;-0.86;100.00;100606.06;5058967;28;20021;-39
2022/12/09 07:41:22;;;;;;;99.85;23.08;;;;;;;-0.83;100.00;100606.69;5062128;28;20100;-37
2022/12/09 07:43:47;;;;;;;99.28;23.65;;;;;;;-0.82;100.00;100608.34;5060328;28;20117;-39
2022/12/09 07:46:14;;;;;;;93.07;23.52;;;;;;;-0.86;100.00;100606.06;5062762;28;20085;-39
2022/12/09 07:48:40;;;;;;;213.95;25.95;;;;;;;-0.98;100.00;100619.22;5061786;28;20601;-38
2022/12/09 07:51:05;;;;;;;104.25;23.92;;;;;;;-1.03;100.00;100618.69;5060917;28;20362;-39
2022/12/09 07:53:33;;;;;;;105.13;25.02;;;;;;;-1.05;100.00;100612.72;5062851;28;20098;-38
2022/12/09 07:56:06;;;;;;;;;;;;;;;-1.00;100.00;100621.16;5062481;28;20016;-39
2022/12/09 07:58:32;;;;;;;114.22;24.85;;;;;;;-0.97;100.00;100618.28;5062718;28;20004;-40
2022/12/09 08:01:04;;;;;;;106.95;25.13;;;;;;;-0.92;100.00;100618.78;5060840;28;20210;-39
2022/12/09 08:03:29;;;;;;;113.35;26.38;;;;;;;-0.83;100.00;100617.25;5059395;28;20417;-39
2022/12/09 08:05:54;;;;;;;105.85;26.05;;;;;;;-0.84;100.00;100610.28;5060421;28;20040;-40
2022/12/09 08:08:20;;;;;;;109.50;26.35;;;;;;;-0.77;100.00;100615.94;5062080;28;20021;-39
2022/12/09 08:10:45;;;;;;;106.18;26.27;;;;;;;-0.76;100.00;100626.41;5061402;28;20021;-39
2022/12/09 08:13:11;;;;;;;106.35;27.45;;;;;;;-0.72;100.00;100614.63;5059374;28;20024;-37
2022/12/09 08:15:36;;;;;;;106.25;27.23;;;;;;;-0.62;100.00;100617.44;5062106;28;20017;-40
2022/12/09 08:18:02;;;;;;;114.13;28.40;;;;;;;-0.56;100.00;100624.91;5060621;28;20485;-40
2022/12/09 08:20:28;;;;;;;120.35;29.17;;;;;;;-0.52;100.00;100620.25;5062474;28;20047;-36
2022/12/09 08:22:53;;;;;;;100.85;27.45;;;;;;;-0.53;100.00;100624.66;5061830;28;20032;-38
2022/12/09 08:25:18;;;;;;;110.45;28.00;;;;;;;-0.53;100.00;100622.00;5060360;28;20206;-38
2022/12/09 08:27:44;;;;;;;113.90;28.40;;;;;;;-0.52;100.00;100622.88;5061389;28;20083;-39
2022/12/09 08:30:09;;;;;;;103.60;27.90;;;;;;;-0.52;100.00;100622.88;5064332;28;20028;-36
2022/12/09 08:32:35;;;;;;;109.00;29.65;;;;;;;-0.45;100.00;100618.78;5070634;28;20025;-38
2022/12/09 08:35:00;;;;;;;107.60;28.27;;;;;;;-0.40;100.00;100624.56;5068941;28;20392;-39
2022/12/09 08:37:25;;;;;;;90.97;27.27;;;;;;;-0.39;100.00;100625.44;5070316;28;20028;-38
2022/12/09 08:39:51;;;;;;;111.43;29.10;;;;;;;-0.42;100.00;100621.22;5070620;28;20021;-39
2022/12/09 08:42:16;;;;;;;105.82;29.30;;;;;;;-0.46;100.00;100623.25;5070247;28;20024;-36
2022/12/09 08:44:41;;;;;;;107.20;28.27;;;;;;;-0.37;100.00;100624.38;5064172;28;20082;-37
2022/12/09 08:47:07;;;;;;;112.22;30.20;;;;;;;-0.37;100.00;100626.16;5059781;28;20120;-39
2022/12/09 08:49:32;;;;;;;117.70;31.58;;;;;;;-0.35;100.00;100621.59;5060886;28;20078;-38
2022/12/09 08:51:58;;;;;;;100.22;28.40;;;;;;;-0.39;100.00;100628.94;5059044;28;20115;-39
2022/12/09 08:54:23;;;;;;;116.90;29.75;;;;;;;-0.31;100.00;100625.69;5059045;28;20017;-37
2022/12/09 08:56:53;;;;;;;118.28;30.85;;;;;;;-0.28;100.00;100630.75;5059131;28;20446;-37
2022/12/09 08:59:19;;;;;;;99.50;28.50;;;;;;;-0.31;100.00;100634.47;5058235;28;20035;-39
2022/12/09 09:01:44;;;;;;;117.07;31.55;;;;;;;-0.16;100.00;100628.94;5059176;28;20021;-36
2022/12/09 09:04:12;;;;;;;135.75;29.88;;;;;;;-0.23;100.00;100632.06;5060593;28;20360;-36
2022/12/09 09:06:39;;;;;;;102.82;28.08;;;;;;;-0.15;100.00;100628.84;5059710;28;20141;-36
2022/12/09 09:09:05;;;;;;;115.78;29.75;;;;;;;-0.10;100.00;100626.69;5060950;28;20029;-39
2022/12/09 09:11:31;;;;;;;222.77;33.35;;;;;;;-0.16;100.00;100631.59;5061314;28;20025;-38
2022/12/09 09:13:57;;;;;;;108.13;29.73;;;;;;;-0.11;100.00;100621.50;5059963;28;20523;-37
2022/12/09 09:16:23;;;;;;;143.18;31.10;;;;;;;-0.03;100.00;100622.63;5061472;28;20035;-38
2022/12/09 09:18:49;;;;;;;163.48;32.85;;;;;;;-0.10;100.00;100625.84;5060346;28;20404;-36
2022/12/09 09:21:17;;;;;;;122.63;33.65;;;;;;;-0.18;100.00;100625.59;5058698;28;20021;-39
2022/12/09 09:23:43;;;;;;;137.13;34.75;;;;;;;-0.26;100.00;100632.31;5058884;28;20039;-37
2022/12/09 09:26:13;;;;;;;126.20;33.92;;;;;;;-0.19;100.00;100637.13;5059565;28;20104;-38
2022/12/09 09:28:39;;;;;;;145.13;35.47;;;;;;;-0.09;100.00;100635.47;5058661;28;20052;-37
2022/12/09 09:31:06;;;;;;;147.65;35.53;;;;;;;-0.12;100.00;100633.06;5059622;28;20508;-39
2022/12/09 09:33:31;;;;;;;120.38;32.22;;;;;;;-0.04;100.00;100630.66;5060334;28;20292;-38
2022/12/09 09:35:59;;;;;;;138.20;35.90;;;;;;;0.06;100.00;100636.09;5059035;28;20025;-37
2022/12/09 09:38:25;;;;;;;116.97;33.28;;;;;;;0.17;100.00;100639.56;5058727;28;20086;-37
2022/12/09 09:40:51;;;;;;;129.63;34.05;;;;;;;0.22;100.00;100650.63;5053367;28;20064;-37
2022/12/09 09:43:20;;;;;;;123.03;34.97;;;;;;;0.13;100.00;100643.44;5052396;28;20052;-38
2022/12/09 09:45:45;;;;;;;117.13;31.80;;;;;;;0.35;100.00;100655.81;5058379;28;20083;-39
2022/12/09 09:48:17;;;;;;;127.75;35.30;;;;;;;0.64;100.00;100653.50;5059314;28;20016;-37
2022/12/09 09:50:52;;;;;;;118.35;34.40;;;;;;;0.67;100.00;100652.41;5060512;28;20029;-38
2022/12/09 09:53:31;;;;;;;119.15;35.78;;;;;;;0.67;100.00;100662.19;5059112;28;20056;-37
2022/12/09 09:56:00;;;;;;;110.75;33.33;;;;;;;0.61;100.00;100661.69;5063787;28;20032;-37
2022/12/09 09:58:40;;;;;;;110.80;34.92;;;;;;;0.78;100.00;100664.81;5069711;28;20033;-36
2022/12/09 10:01:12;;;;;;;110.55;33.67;;;;;;;0.80;100.00;100666.34;5072273;28;20424;-37
2022/12/09 10:04:01;;;;;;;110.57;35.67;;;;;;;0.78;100.00;100665.63;5073600;28;20043;-36
2022/12/09 10:06:35;;;;;;;110.72;34.65;;;;;;;0.89;100.00;100672.72;5073501;28;20028;-38
2022/12/09 10:09:16;;;;;;;108.82;33.10;;;;;;;0.82;100.00;100667.09;5073436;28;20302;-36
2022/12/09 10:11:53;;;;;;;107.53;35.75;;;;;;;0.78;100.00;100659.50;5072213;28;20027;-38
2022/12/09 10:14:31;;;;;;;108.40;36.00;;;;;;;0.71;100.00;100658.31;5073431;28;20028;-39
2022/12/09 10:17:28;;;;;;;110.78;34.88;;;;;;;0.72;100.00;100662.66;5072083;28;20028;-37
2022/12/09 10:19:57;;;;;;;106.25;36.15;;;;;;;0.93;100.00;100658.28;5072240;28;20021;-37
2022/12/09 10:22:27;;;;;;;106.32;33.78;;;;;;;0.96;100.00;100655.38;5072006;28;20107;-37
2022/12/09 10:24:56;;;;;;;97.72;34.10;;;;;;;1.08;100.00;100658.84;5071892;28;20476;-38
2022/12/09 10:27:33;;;;;;;112.20;35.78;;;;;;;1.06;100.00;100656.31;5052330;28;20058;-37
2022/12/09 10:30:01;;;;;;;112.82;36.42;;;;;;;1.13;100.00;100653.13;5051954;28;20407;-38
2022/12/09 10:32:31;;;;;;;98.50;33.53;;;;;;;1.28;100.00;100650.06;5053381;28;20107;-38
2022/12/09 10:34:57;;;;;;;98.50;35.40;;;;;;;1.29;100.00;100654.44;5051565;28;20029;-36
2022/12/09 10:37:24;;;;;;;102.47;34.88;;;;;;;1.32;100.00;100648.03;5052794;28;20066;-38
2022/12/09 10:39:59;;;;;;;101.30;37.67;;;;;;;1.25;100.00;100642.38;5053046;28;20395;-38
2022/12/09 10:45:10;;;;;;;95.18;36.33;;;;;;;1.26;100.00;100653.81;5053010;28;20095;-37
2022/12/09 10:47:35;;;;;;;94.43;35.22;;;;;;;1.30;100.00;100645.50;5053035;28;20080;-39
2022/12/09 10:50:01;;;;;;;102.13;36.42;;;;;;;1.49;100.00;100638.66;5052914;28;20044;-38
2022/12/09 10:52:31;;;;;;;98.97;36.40;;;;;;;1.61;100.00;100642.09;5052726;28;20033;-38
2022/12/09 10:54:57;;;;;;;91.55;35.53;;;;;;;1.74;100.00;100646.25;5051647;28;20120;-38
2022/12/09 10:57:25;;;;;;;100.43;36.67;;;;;;;1.88;100.00;100645.06;5054327;28;20086;-36
2022/12/09 11:00:19;;;;;;;100.00;36.75;;;;;;;2.05;100.00;100645.44;5055190;28;20027;-38
2022/12/09 11:02:53;;;;;;;88.38;34.53;;;;;;;2.15;100.00;100641.84;5053951;28;20040;-37
2022/12/09 11:05:26;;;;;;;94.97;37.72;;;;;;;2.05;100.00;100637.47;5053099;28;20029;-36
2022/12/09 11:07:53;;;;;;;94.63;35.72;;;;;;;1.89;100.00;100638.78;5052400;28;20288;-38